sensor_id;sensor_type;location;lat;lon;timestamp;temperature;humidity
5960;DHT22;3006;50.956;7.002;2022-07-25T00:01:27;25.00;82.50
5960;DHT22;3006;50.956;7.002;2022-07-25T00:03:57;25.00;82.60
5960;DHT22;3006;50.956;7.002;2022-07-25T00:06:25;25.00;82.80
5960;DHT22;3006;50.956;7.002;2022-07-25T00:08:53;24.90;83.00
5960;DHT22;3006;50.956;7.002;2022-07-25T00:11:21;24.80;83.10
5960;DHT22;3006;50.956;7.002;2022-07-25T00:13:49;24.80;83.00
5960;DHT22;3006;50.956;7.002;2022-07-25T00:16:18;24.80;83.30
5960;DHT22;3006;50.956;7.002;2022-07-25T00:18:46;24.80;83.50
5960;DHT22;3006;50.956;7.002;2022-07-25T00:21:15;24.80;83.60
5960;DHT22;3006;50.956;7.002;2022-07-25T00:23:44;24.70;83.80
5960;DHT22;3006;50.956;7.002;2022-07-25T00:26:12;24.60;84.00
5960;DHT22;3006;50.956;7.002;2022-07-25T00:28:40;24.60;84.20
5960;DHT22;3006;50.956;7.002;2022-07-25T00:31:08;24.60;84.00
5960;DHT22;3006;50.956;7.002;2022-07-25T00:33:36;24.60;84.10
5960;DHT22;3006;50.956;7.002;2022-07-25T00:36:06;24.50;84.20
5960;DHT22;3006;50.956;7.002;2022-07-25T00:38:36;24.60;84.30
5960;DHT22;3006;50.956;7.002;2022-07-25T00:41:04;24.60;84.30
5960;DHT22;3006;50.956;7.002;2022-07-25T00:43:32;24.50;84.40
5960;DHT22;3006;50.956;7.002;2022-07-25T00:46:00;24.40;84.60
5960;DHT22;3006;50.956;7.002;2022-07-25T00:48:29;24.40;84.80
5960;DHT22;3006;50.956;7.002;2022-07-25T00:50:58;24.40;84.80
5960;DHT22;3006;50.956;7.002;2022-07-25T00:53:26;24.40;84.70
5960;DHT22;3006;50.956;7.002;2022-07-25T00:55:55;24.30;84.50
5960;DHT22;3006;50.956;7.002;2022-07-25T00:58:23;24.30;84.60
5960;DHT22;3006;50.956;7.002;2022-07-25T01:00:52;24.30;84.60
5960;DHT22;3006;50.956;7.002;2022-07-25T01:03:20;24.30;84.30
5960;DHT22;3006;50.956;7.002;2022-07-25T01:05:48;24.30;84.20
5960;DHT22;3006;50.956;7.002;2022-07-25T01:08:20;24.30;84.20
5960;DHT22;3006;50.956;7.002;2022-07-25T01:10:49;24.30;84.30
5960;DHT22;3006;50.956;7.002;2022-07-25T01:13:19;24.30;84.20
5960;DHT22;3006;50.956;7.002;2022-07-25T01:15:47;24.30;84.30
5960;DHT22;3006;50.956;7.002;2022-07-25T01:18:15;24.20;84.30
5960;DHT22;3006;50.956;7.002;2022-07-25T01:20:45;24.30;84.20
5960;DHT22;3006;50.956;7.002;2022-07-25T01:23:14;24.20;84.20
5960;DHT22;3006;50.956;7.002;2022-07-25T01:25:42;24.20;84.40
5960;DHT22;3006;50.956;7.002;2022-07-25T01:28:11;24.10;84.40
5960;DHT22;3006;50.956;7.002;2022-07-25T01:30:39;24.20;84.50
5960;DHT22;3006;50.956;7.002;2022-07-25T01:33:07;24.20;84.60
5960;DHT22;3006;50.956;7.002;2022-07-25T01:35:37;24.10;84.60
5960;DHT22;3006;50.956;7.002;2022-07-25T01:38:11;24.10;84.80
5960;DHT22;3006;50.956;7.002;2022-07-25T01:40:40;24.10;84.80
5960;DHT22;3006;50.956;7.002;2022-07-25T01:43:08;24.00;85.40
5960;DHT22;3006;50.956;7.002;2022-07-25T01:45:37;24.00;85.70
5960;DHT22;3006;50.956;7.002;2022-07-25T01:48:05;23.90;85.70
5960;DHT22;3006;50.956;7.002;2022-07-25T01:50:34;23.80;86.10
5960;DHT22;3006;50.956;7.002;2022-07-25T01:53:02;23.80;86.40
5960;DHT22;3006;50.956;7.002;2022-07-25T01:55:31;23.80;86.50
5960;DHT22;3006;50.956;7.002;2022-07-25T01:58:00;23.90;86.10
5960;DHT22;3006;50.956;7.002;2022-07-25T02:00:28;23.90;86.10
5960;DHT22;3006;50.956;7.002;2022-07-25T02:02:56;23.80;86.30
5960;DHT22;3006;50.956;7.002;2022-07-25T02:05:42;23.80;86.20
5960;DHT22;3006;50.956;7.002;2022-07-25T02:08:10;23.80;86.70
5960;DHT22;3006;50.956;7.002;2022-07-25T02:10:39;23.80;86.70
5960;DHT22;3006;50.956;7.002;2022-07-25T02:13:07;23.80;86.50
5960;DHT22;3006;50.956;7.002;2022-07-25T02:15:37;23.80;86.80
5960;DHT22;3006;50.956;7.002;2022-07-25T02:18:05;23.70;86.90
5960;DHT22;3006;50.956;7.002;2022-07-25T02:20:34;23.70;87.30
5960;DHT22;3006;50.956;7.002;2022-07-25T02:23:02;23.60;87.40
5960;DHT22;3006;50.956;7.002;2022-07-25T02:25:30;23.60;87.70
5960;DHT22;3006;50.956;7.002;2022-07-25T02:27:59;23.50;88.00
5960;DHT22;3006;50.956;7.002;2022-07-25T02:30:28;23.50;88.00
5960;DHT22;3006;50.956;7.002;2022-07-25T02:32:56;23.50;88.40
5960;DHT22;3006;50.956;7.002;2022-07-25T02:35:24;23.40;88.70
5960;DHT22;3006;50.956;7.002;2022-07-25T02:37:52;23.40;88.70
5960;DHT22;3006;50.956;7.002;2022-07-25T02:40:21;23.40;89.00
5960;DHT22;3006;50.956;7.002;2022-07-25T02:42:49;23.40;89.00
5960;DHT22;3006;50.956;7.002;2022-07-25T02:45:18;23.30;89.30
5960;DHT22;3006;50.956;7.002;2022-07-25T02:47:46;23.40;88.90
5960;DHT22;3006;50.956;7.002;2022-07-25T02:50:14;23.40;88.60
5960;DHT22;3006;50.956;7.002;2022-07-25T02:52:43;23.40;88.80
5960;DHT22;3006;50.956;7.002;2022-07-25T02:55:11;23.40;89.20
5960;DHT22;3006;50.956;7.002;2022-07-25T02:57:39;23.30;89.40
5960;DHT22;3006;50.956;7.002;2022-07-25T03:00:08;23.30;89.30
5960;DHT22;3006;50.956;7.002;2022-07-25T03:02:38;23.30;89.60
5960;DHT22;3006;50.956;7.002;2022-07-25T03:05:07;23.30;89.50
5960;DHT22;3006;50.956;7.002;2022-07-25T03:07:36;23.30;89.70
5960;DHT22;3006;50.956;7.002;2022-07-25T03:10:06;23.20;89.70
5960;DHT22;3006;50.956;7.002;2022-07-25T03:12:38;23.20;89.80
5960;DHT22;3006;50.956;7.002;2022-07-25T03:15:13;23.20;90.10
5960;DHT22;3006;50.956;7.002;2022-07-25T03:17:42;23.20;89.60
5960;DHT22;3006;50.956;7.002;2022-07-25T03:20:11;23.20;89.90
5960;DHT22;3006;50.956;7.002;2022-07-25T03:22:40;23.10;90.20
5960;DHT22;3006;50.956;7.002;2022-07-25T03:25:08;23.10;90.30
5960;DHT22;3006;50.956;7.002;2022-07-25T03:27:47;23.00;90.50
5960;DHT22;3006;50.956;7.002;2022-07-25T03:30:16;22.90;90.60
5960;DHT22;3006;50.956;7.002;2022-07-25T03:32:45;22.90;90.80
5960;DHT22;3006;50.956;7.002;2022-07-25T03:35:13;22.80;90.80
5960;DHT22;3006;50.956;7.002;2022-07-25T03:37:42;22.90;91.10
5960;DHT22;3006;50.956;7.002;2022-07-25T03:40:11;22.90;90.80
5960;DHT22;3006;50.956;7.002;2022-07-25T03:42:41;22.90;90.80
5960;DHT22;3006;50.956;7.002;2022-07-25T03:45:10;22.90;90.70
5960;DHT22;3006;50.956;7.002;2022-07-25T03:47:38;22.90;90.50
5960;DHT22;3006;50.956;7.002;2022-07-25T03:50:08;23.00;90.50
5960;DHT22;3006;50.956;7.002;2022-07-25T03:52:36;23.00;90.50
5960;DHT22;3006;50.956;7.002;2022-07-25T03:55:06;23.00;90.60
5960;DHT22;3006;50.956;7.002;2022-07-25T03:57:35;22.90;90.60
5960;DHT22;3006;50.956;7.002;2022-07-25T04:00:05;22.90;90.60
5960;DHT22;3006;50.956;7.002;2022-07-25T04:02:33;22.90;90.70
5960;DHT22;3006;50.956;7.002;2022-07-25T04:05:04;22.90;90.60
5960;DHT22;3006;50.956;7.002;2022-07-25T04:07:33;22.90;90.50
5960;DHT22;3006;50.956;7.002;2022-07-25T04:10:02;22.90;90.40
5960;DHT22;3006;50.956;7.002;2022-07-25T04:12:30;23.00;90.40
5960;DHT22;3006;50.956;7.002;2022-07-25T04:14:58;22.90;90.50
5960;DHT22;3006;50.956;7.002;2022-07-25T04:17:26;22.90;90.50
5960;DHT22;3006;50.956;7.002;2022-07-25T04:19:54;23.00;90.60
5960;DHT22;3006;50.956;7.002;2022-07-25T04:22:22;23.00;90.50
5960;DHT22;3006;50.956;7.002;2022-07-25T04:24:52;23.00;90.50
5960;DHT22;3006;50.956;7.002;2022-07-25T04:27:20;23.10;90.50
5960;DHT22;3006;50.956;7.002;2022-07-25T04:29:48;23.00;90.40
5960;DHT22;3006;50.956;7.002;2022-07-25T04:32:16;23.00;90.50
5960;DHT22;3006;50.956;7.002;2022-07-25T04:34:49;23.00;90.50
5960;DHT22;3006;50.956;7.002;2022-07-25T04:37:18;23.00;90.60
5960;DHT22;3006;50.956;7.002;2022-07-25T04:39:46;23.10;90.50
5960;DHT22;3006;50.956;7.002;2022-07-25T04:42:15;23.00;90.60
5960;DHT22;3006;50.956;7.002;2022-07-25T04:44:43;23.10;90.50
5960;DHT22;3006;50.956;7.002;2022-07-25T04:47:11;23.10;90.60
5960;DHT22;3006;50.956;7.002;2022-07-25T04:49:40;23.10;90.60
5960;DHT22;3006;50.956;7.002;2022-07-25T04:52:08;23.20;90.40
5960;DHT22;3006;50.956;7.002;2022-07-25T04:54:36;23.30;90.40
5960;DHT22;3006;50.956;7.002;2022-07-25T04:57:04;23.30;90.30
5960;DHT22;3006;50.956;7.002;2022-07-25T04:59:33;23.40;90.20
5960;DHT22;3006;50.956;7.002;2022-07-25T05:02:01;23.40;90.50
5960;DHT22;3006;50.956;7.002;2022-07-25T05:04:30;23.40;90.10
5960;DHT22;3006;50.956;7.002;2022-07-25T05:07:00;23.50;90.10
5960;DHT22;3006;50.956;7.002;2022-07-25T05:09:28;23.50;90.00
5960;DHT22;3006;50.956;7.002;2022-07-25T05:11:56;23.60;90.10
5960;DHT22;3006;50.956;7.002;2022-07-25T05:14:24;23.60;90.00
5960;DHT22;3006;50.956;7.002;2022-07-25T05:16:54;23.70;89.90
5960;DHT22;3006;50.956;7.002;2022-07-25T05:19:22;23.80;89.80
5960;DHT22;3006;50.956;7.002;2022-07-25T05:21:50;23.80;89.70
5960;DHT22;3006;50.956;7.002;2022-07-25T05:24:18;23.80;89.50
5960;DHT22;3006;50.956;7.002;2022-07-25T05:26:48;23.90;89.40
5960;DHT22;3006;50.956;7.002;2022-07-25T05:29:16;24.00;89.20
5960;DHT22;3006;50.956;7.002;2022-07-25T05:31:45;24.00;88.90
5960;DHT22;3006;50.956;7.002;2022-07-25T05:34:14;24.10;88.90
5960;DHT22;3006;50.956;7.002;2022-07-25T05:36:42;24.10;89.10
5960;DHT22;3006;50.956;7.002;2022-07-25T05:39:13;24.10;89.00
5960;DHT22;3006;50.956;7.002;2022-07-25T05:41:41;24.10;88.60
5960;DHT22;3006;50.956;7.002;2022-07-25T05:44:09;24.10;88.60
5960;DHT22;3006;50.956;7.002;2022-07-25T05:46:37;24.10;88.70
5960;DHT22;3006;50.956;7.002;2022-07-25T05:49:06;24.20;88.40
5960;DHT22;3006;50.956;7.002;2022-07-25T05:51:35;24.20;88.30
5960;DHT22;3006;50.956;7.002;2022-07-25T05:54:04;24.30;87.90
5960;DHT22;3006;50.956;7.002;2022-07-25T05:56:32;24.30;87.70
5960;DHT22;3006;50.956;7.002;2022-07-25T05:59:01;24.40;87.60
5960;DHT22;3006;50.956;7.002;2022-07-25T06:01:29;24.50;91.10
5960;DHT22;3006;50.956;7.002;2022-07-25T06:03:57;24.60;88.60
5960;DHT22;3006;50.956;7.002;2022-07-25T06:06:25;24.70;88.20
5960;DHT22;3006;50.956;7.002;2022-07-25T06:08:54;24.70;87.70
5960;DHT22;3006;50.956;7.002;2022-07-25T06:11:23;24.80;87.20
5960;DHT22;3006;50.956;7.002;2022-07-25T06:13:56;24.80;86.80
5960;DHT22;3006;50.956;7.002;2022-07-25T06:16:25;24.80;86.90
5960;DHT22;3006;50.956;7.002;2022-07-25T06:18:53;24.90;86.90
5960;DHT22;3006;50.956;7.002;2022-07-25T06:21:21;24.90;86.80
5960;DHT22;3006;50.956;7.002;2022-07-25T06:23:49;24.90;88.20
5960;DHT22;3006;50.956;7.002;2022-07-25T06:26:19;25.00;88.00
5960;DHT22;3006;50.956;7.002;2022-07-25T06:28:47;25.10;87.30
5960;DHT22;3006;50.956;7.002;2022-07-25T06:31:15;25.20;87.00
5960;DHT22;3006;50.956;7.002;2022-07-25T06:33:43;25.30;86.40
5960;DHT22;3006;50.956;7.002;2022-07-25T06:36:12;25.30;86.10
5960;DHT22;3006;50.956;7.002;2022-07-25T06:38:40;25.40;86.10
5960;DHT22;3006;50.956;7.002;2022-07-25T06:41:12;25.50;85.90
5960;DHT22;3006;50.956;7.002;2022-07-25T06:43:42;25.60;85.80
5960;DHT22;3006;50.956;7.002;2022-07-25T06:46:10;25.60;85.70
5960;DHT22;3006;50.956;7.002;2022-07-25T06:48:38;25.70;85.80
5960;DHT22;3006;50.956;7.002;2022-07-25T06:51:06;25.80;85.70
5960;DHT22;3006;50.956;7.002;2022-07-25T06:53:34;26.00;85.40
5960;DHT22;3006;50.956;7.002;2022-07-25T06:56:03;26.10;85.40
5960;DHT22;3006;50.956;7.002;2022-07-25T06:58:31;26.20;85.40
5960;DHT22;3006;50.956;7.002;2022-07-25T07:01:01;26.20;85.00
5960;DHT22;3006;50.956;7.002;2022-07-25T07:03:29;26.30;85.10
5960;DHT22;3006;50.956;7.002;2022-07-25T07:05:58;26.30;85.00
5960;DHT22;3006;50.956;7.002;2022-07-25T07:08:27;26.30;85.00
5960;DHT22;3006;50.956;7.002;2022-07-25T07:10:55;26.30;85.20
5960;DHT22;3006;50.956;7.002;2022-07-25T07:13:24;26.30;85.20
5960;DHT22;3006;50.956;7.002;2022-07-25T07:15:52;26.40;85.40
5960;DHT22;3006;50.956;7.002;2022-07-25T07:18:23;26.40;85.30
5960;DHT22;3006;50.956;7.002;2022-07-25T07:20:51;26.50;85.30
5960;DHT22;3006;50.956;7.002;2022-07-25T07:23:19;26.50;85.30
5960;DHT22;3006;50.956;7.002;2022-07-25T07:25:47;26.60;85.40
5960;DHT22;3006;50.956;7.002;2022-07-25T07:28:15;26.60;85.30
5960;DHT22;3006;50.956;7.002;2022-07-25T07:30:43;26.70;85.10
5960;DHT22;3006;50.956;7.002;2022-07-25T07:33:58;26.80;85.20
5960;DHT22;3006;50.956;7.002;2022-07-25T07:36:27;26.90;84.90
5960;DHT22;3006;50.956;7.002;2022-07-25T07:38:55;27.10;84.80
5960;DHT22;3006;50.956;7.002;2022-07-25T07:41:23;27.20;84.50
5960;DHT22;3006;50.956;7.002;2022-07-25T07:43:53;27.20;84.30
5960;DHT22;3006;50.956;7.002;2022-07-25T07:46:22;27.20;84.10
5960;DHT22;3006;50.956;7.002;2022-07-25T07:48:50;27.30;84.30
5960;DHT22;3006;50.956;7.002;2022-07-25T07:51:25;27.40;84.30
5960;DHT22;3006;50.956;7.002;2022-07-25T07:53:53;27.50;84.20
5960;DHT22;3006;50.956;7.002;2022-07-25T07:56:38;27.50;84.10
5960;DHT22;3006;50.956;7.002;2022-07-25T07:59:07;27.60;84.00
5960;DHT22;3006;50.956;7.002;2022-07-25T08:01:36;27.60;84.00
5960;DHT22;3006;50.956;7.002;2022-07-25T08:04:05;27.70;83.90
5960;DHT22;3006;50.956;7.002;2022-07-25T08:06:34;27.70;83.80
5960;DHT22;3006;50.956;7.002;2022-07-25T08:09:03;27.80;83.90
5960;DHT22;3006;50.956;7.002;2022-07-25T08:11:31;27.90;83.80
5960;DHT22;3006;50.956;7.002;2022-07-25T08:14:00;27.90;84.10
5960;DHT22;3006;50.956;7.002;2022-07-25T08:16:28;28.00;83.80
5960;DHT22;3006;50.956;7.002;2022-07-25T08:18:56;27.90;84.30
5960;DHT22;3006;50.956;7.002;2022-07-25T08:21:24;28.00;83.50
5960;DHT22;3006;50.956;7.002;2022-07-25T08:23:53;28.00;83.50
5960;DHT22;3006;50.956;7.002;2022-07-25T08:26:22;28.00;83.30
5960;DHT22;3006;50.956;7.002;2022-07-25T08:28:53;28.00;82.80
5960;DHT22;3006;50.956;7.002;2022-07-25T08:31:41;28.00;82.90
5960;DHT22;3006;50.956;7.002;2022-07-25T08:34:10;28.00;82.70
5960;DHT22;3006;50.956;7.002;2022-07-25T08:36:38;28.10;82.30
5960;DHT22;3006;50.956;7.002;2022-07-25T08:39:07;28.20;81.60
5960;DHT22;3006;50.956;7.002;2022-07-25T08:41:38;28.20;81.50
5960;DHT22;3006;50.956;7.002;2022-07-25T08:44:08;28.20;81.30
5960;DHT22;3006;50.956;7.002;2022-07-25T08:46:37;28.20;80.60
5960;DHT22;3006;50.956;7.002;2022-07-25T08:49:07;28.20;80.20
5960;DHT22;3006;50.956;7.002;2022-07-25T08:51:36;28.20;79.40
5960;DHT22;3006;50.956;7.002;2022-07-25T08:54:08;28.20;79.20
5960;DHT22;3006;50.956;7.002;2022-07-25T08:56:37;28.20;79.00
5960;DHT22;3006;50.956;7.002;2022-07-25T08:59:05;28.20;78.80
5960;DHT22;3006;50.956;7.002;2022-07-25T09:01:33;28.30;79.00
5960;DHT22;3006;50.956;7.002;2022-07-25T09:04:02;28.30;79.20
5960;DHT22;3006;50.956;7.002;2022-07-25T09:06:31;28.30;79.10
5960;DHT22;3006;50.956;7.002;2022-07-25T09:08:59;28.30;79.00
5960;DHT22;3006;50.956;7.002;2022-07-25T09:11:33;28.30;79.50
5960;DHT22;3006;50.956;7.002;2022-07-25T09:14:03;28.30;79.10
5960;DHT22;3006;50.956;7.002;2022-07-25T09:16:35;28.10;78.80
5960;DHT22;3006;50.956;7.002;2022-07-25T09:19:08;28.20;79.10
5960;DHT22;3006;50.956;7.002;2022-07-25T09:21:38;28.30;79.00
5960;DHT22;3006;50.956;7.002;2022-07-25T09:24:08;28.30;78.70
5960;DHT22;3006;50.956;7.002;2022-07-25T09:26:45;28.40;79.00
5960;DHT22;3006;50.956;7.002;2022-07-25T09:29:19;28.40;78.80
5960;DHT22;3006;50.956;7.002;2022-07-25T09:31:47;28.50;78.70
5960;DHT22;3006;50.956;7.002;2022-07-25T09:34:27;28.70;78.50
5960;DHT22;3006;50.956;7.002;2022-07-25T09:36:56;28.90;78.10
5960;DHT22;3006;50.956;7.002;2022-07-25T09:39:35;29.00;77.60
5960;DHT22;3006;50.956;7.002;2022-07-25T09:42:18;29.10;77.60
5960;DHT22;3006;50.956;7.002;2022-07-25T09:45:02;29.20;77.50
5960;DHT22;3006;50.956;7.002;2022-07-25T09:47:33;29.20;77.80
5960;DHT22;3006;50.956;7.002;2022-07-25T09:50:02;29.20;77.90
5960;DHT22;3006;50.956;7.002;2022-07-25T09:52:31;29.10;78.00
5960;DHT22;3006;50.956;7.002;2022-07-25T09:55:02;28.90;78.60
5960;DHT22;3006;50.956;7.002;2022-07-25T09:57:32;28.80;78.70
5960;DHT22;3006;50.956;7.002;2022-07-25T10:00:00;28.60;79.00
5960;DHT22;3006;50.956;7.002;2022-07-25T10:02:42;28.40;79.40
5960;DHT22;3006;50.956;7.002;2022-07-25T10:05:14;28.30;80.10
5960;DHT22;3006;50.956;7.002;2022-07-25T10:07:44;28.10;80.80
5960;DHT22;3006;50.956;7.002;2022-07-25T10:10:23;28.00;81.00
5960;DHT22;3006;50.956;7.002;2022-07-25T10:13:04;27.90;81.10
5960;DHT22;3006;50.956;7.002;2022-07-25T10:15:45;27.80;81.70
5960;DHT22;3006;50.956;7.002;2022-07-25T10:18:14;27.70;82.50
5960;DHT22;3006;50.956;7.002;2022-07-25T10:20:43;27.50;83.80
5960;DHT22;3006;50.956;7.002;2022-07-25T10:23:19;27.30;83.50
5960;DHT22;3006;50.956;7.002;2022-07-25T10:25:59;27.20;84.30
5960;DHT22;3006;50.956;7.002;2022-07-25T10:28:36;26.90;86.00
5960;DHT22;3006;50.956;7.002;2022-07-25T10:31:18;26.80;88.30
5960;DHT22;3006;50.956;7.002;2022-07-25T10:33:50;26.80;89.60
5960;DHT22;3006;50.956;7.002;2022-07-25T10:36:20;26.70;91.70
5960;DHT22;3006;50.956;7.002;2022-07-25T10:38:51;26.60;91.00
5960;DHT22;3006;50.956;7.002;2022-07-25T10:41:23;26.60;89.90
5960;DHT22;3006;50.956;7.002;2022-07-25T10:43:56;26.70;90.30
5960;DHT22;3006;50.956;7.002;2022-07-25T10:46:26;26.70;89.70
5960;DHT22;3006;50.956;7.002;2022-07-25T10:49:01;26.70;88.60
5960;DHT22;3006;50.956;7.002;2022-07-25T10:51:32;26.70;89.60
5960;DHT22;3006;50.956;7.002;2022-07-25T10:54:14;26.70;89.20
5960;DHT22;3006;50.956;7.002;2022-07-25T10:56:51;26.60;87.40
5960;DHT22;3006;50.956;7.002;2022-07-25T10:59:32;26.70;88.10
5960;DHT22;3006;50.956;7.002;2022-07-25T11:02:01;26.80;86.80
5960;DHT22;3006;50.956;7.002;2022-07-25T11:04:31;26.80;85.90
5960;DHT22;3006;50.956;7.002;2022-07-25T11:07:07;26.80;85.70
5960;DHT22;3006;50.956;7.002;2022-07-25T11:09:35;26.90;86.10
5960;DHT22;3006;50.956;7.002;2022-07-25T11:12:04;26.90;85.50
5960;DHT22;3006;50.956;7.002;2022-07-25T11:14:36;26.90;85.90
5960;DHT22;3006;50.956;7.002;2022-07-25T11:17:11;27.20;86.00
5960;DHT22;3006;50.956;7.002;2022-07-25T11:19:40;27.20;85.20
5960;DHT22;3006;50.956;7.002;2022-07-25T11:22:09;27.30;84.60
5960;DHT22;3006;50.956;7.002;2022-07-25T11:24:39;27.30;84.40
5960;DHT22;3006;50.956;7.002;2022-07-25T11:27:09;27.40;84.20
5960;DHT22;3006;50.956;7.002;2022-07-25T11:29:40;27.50;84.20
5960;DHT22;3006;50.956;7.002;2022-07-25T11:32:10;27.60;83.60
5960;DHT22;3006;50.956;7.002;2022-07-25T11:34:43;27.40;83.40
5960;DHT22;3006;50.956;7.002;2022-07-25T11:37:14;27.30;83.90
5960;DHT22;3006;50.956;7.002;2022-07-25T11:39:44;27.30;83.60
5960;DHT22;3006;50.956;7.002;2022-07-25T11:42:15;27.30;83.60
5960;DHT22;3006;50.956;7.002;2022-07-25T11:44:46;27.20;82.50
5960;DHT22;3006;50.956;7.002;2022-07-25T11:47:23;27.20;83.10
5960;DHT22;3006;50.956;7.002;2022-07-25T11:49:53;27.30;82.40
5960;DHT22;3006;50.956;7.002;2022-07-25T11:52:22;27.40;82.30
5960;DHT22;3006;50.956;7.002;2022-07-25T11:54:52;27.40;82.40
5960;DHT22;3006;50.956;7.002;2022-07-25T11:57:22;27.50;82.80
5960;DHT22;3006;50.956;7.002;2022-07-25T11:59:52;27.70;81.90
5960;DHT22;3006;50.956;7.002;2022-07-25T12:02:24;27.90;82.00
5960;DHT22;3006;50.956;7.002;2022-07-25T12:04:55;28.00;81.70
5960;DHT22;3006;50.956;7.002;2022-07-25T12:07:35;28.00;80.70
5960;DHT22;3006;50.956;7.002;2022-07-25T12:10:03;27.90;79.50
5960;DHT22;3006;50.956;7.002;2022-07-25T12:12:45;27.90;78.90
5960;DHT22;3006;50.956;7.002;2022-07-25T12:15:18;27.80;78.90
5960;DHT22;3006;50.956;7.002;2022-07-25T12:17:47;27.90;79.00
5960;DHT22;3006;50.956;7.002;2022-07-25T12:20:16;27.90;78.20
5960;DHT22;3006;50.956;7.002;2022-07-25T12:22:45;27.80;77.90
5960;DHT22;3006;50.956;7.002;2022-07-25T12:25:14;27.70;78.20
5960;DHT22;3006;50.956;7.002;2022-07-25T12:27:42;27.60;78.10
5960;DHT22;3006;50.956;7.002;2022-07-25T12:30:11;27.50;78.80
5960;DHT22;3006;50.956;7.002;2022-07-25T12:32:42;27.60;78.90
5960;DHT22;3006;50.956;7.002;2022-07-25T12:35:12;27.70;78.50
5960;DHT22;3006;50.956;7.002;2022-07-25T12:37:41;27.70;79.00
5960;DHT22;3006;50.956;7.002;2022-07-25T12:40:11;27.80;78.50
5960;DHT22;3006;50.956;7.002;2022-07-25T12:42:40;27.90;79.00
5960;DHT22;3006;50.956;7.002;2022-07-25T12:45:09;27.90;78.90
5960;DHT22;3006;50.956;7.002;2022-07-25T12:47:37;28.00;79.00
5960;DHT22;3006;50.956;7.002;2022-07-25T12:50:08;28.10;79.40
5960;DHT22;3006;50.956;7.002;2022-07-25T12:52:36;28.20;79.20
5960;DHT22;3006;50.956;7.002;2022-07-25T12:55:06;28.30;79.30
5960;DHT22;3006;50.956;7.002;2022-07-25T12:57:35;28.60;79.20
5960;DHT22;3006;50.956;7.002;2022-07-25T13:00:04;28.90;79.00
5960;DHT22;3006;50.956;7.002;2022-07-25T13:02:33;29.00;78.60
5960;DHT22;3006;50.956;7.002;2022-07-25T13:05:01;29.00;78.90
5960;DHT22;3006;50.956;7.002;2022-07-25T13:07:31;28.90;78.90
5960;DHT22;3006;50.956;7.002;2022-07-25T13:10:00;28.80;80.00
5960;DHT22;3006;50.956;7.002;2022-07-25T13:12:29;28.70;79.60
5960;DHT22;3006;50.956;7.002;2022-07-25T13:14:57;28.70;80.00
5960;DHT22;3006;50.956;7.002;2022-07-25T13:17:25;28.80;79.50
5960;DHT22;3006;50.956;7.002;2022-07-25T13:19:54;28.90;79.60
5960;DHT22;3006;50.956;7.002;2022-07-25T13:22:22;29.00;79.20
5960;DHT22;3006;50.956;7.002;2022-07-25T13:24:52;29.10;79.30
5960;DHT22;3006;50.956;7.002;2022-07-25T13:27:21;29.10;78.80
5960;DHT22;3006;50.956;7.002;2022-07-25T13:29:50;29.10;79.90
5960;DHT22;3006;50.956;7.002;2022-07-25T13:32:20;29.20;79.80
5960;DHT22;3006;50.956;7.002;2022-07-25T13:34:48;29.20;80.30
5960;DHT22;3006;50.956;7.002;2022-07-25T13:37:16;29.40;79.50
5960;DHT22;3006;50.956;7.002;2022-07-25T13:39:45;29.50;79.00
5960;DHT22;3006;50.956;7.002;2022-07-25T13:42:14;29.40;78.90
5960;DHT22;3006;50.956;7.002;2022-07-25T13:44:42;29.20;79.30
5960;DHT22;3006;50.956;7.002;2022-07-25T13:47:10;29.10;79.30
5960;DHT22;3006;50.956;7.002;2022-07-25T13:49:38;29.20;79.70
5960;DHT22;3006;50.956;7.002;2022-07-25T13:52:07;29.20;79.90
5960;DHT22;3006;50.956;7.002;2022-07-25T13:54:35;29.40;80.00
5960;DHT22;3006;50.956;7.002;2022-07-25T13:57:03;29.60;79.00
5960;DHT22;3006;50.956;7.002;2022-07-25T13:59:33;29.50;79.20
5960;DHT22;3006;50.956;7.002;2022-07-25T14:02:02;29.70;79.30
5960;DHT22;3006;50.956;7.002;2022-07-25T14:04:30;29.90;77.80
5960;DHT22;3006;50.956;7.002;2022-07-25T14:06:58;29.80;77.60
5960;DHT22;3006;50.956;7.002;2022-07-25T14:09:27;29.80;78.60
5960;DHT22;3006;50.956;7.002;2022-07-25T14:11:55;29.70;78.10
5960;DHT22;3006;50.956;7.002;2022-07-25T14:14:23;29.50;78.20
5960;DHT22;3006;50.956;7.002;2022-07-25T14:16:53;29.50;78.30
5960;DHT22;3006;50.956;7.002;2022-07-25T14:19:21;29.80;77.00
5960;DHT22;3006;50.956;7.002;2022-07-25T14:21:50;30.00;76.50
5960;DHT22;3006;50.956;7.002;2022-07-25T14:24:18;30.20;76.80
5960;DHT22;3006;50.956;7.002;2022-07-25T14:26:46;30.40;76.30
5960;DHT22;3006;50.956;7.002;2022-07-25T14:29:15;30.20;76.30
5960;DHT22;3006;50.956;7.002;2022-07-25T14:31:43;29.80;75.40
5960;DHT22;3006;50.956;7.002;2022-07-25T14:34:13;29.30;76.70
5960;DHT22;3006;50.956;7.002;2022-07-25T14:36:42;29.00;76.20
5960;DHT22;3006;50.956;7.002;2022-07-25T14:39:13;28.80;76.80
5960;DHT22;3006;50.956;7.002;2022-07-25T14:41:42;28.80;76.40
5960;DHT22;3006;50.956;7.002;2022-07-25T14:44:11;28.50;75.90
5960;DHT22;3006;50.956;7.002;2022-07-25T14:46:39;28.40;76.30
5960;DHT22;3006;50.956;7.002;2022-07-25T14:49:12;28.20;76.70
5960;DHT22;3006;50.956;7.002;2022-07-25T14:51:41;28.20;77.10
5960;DHT22;3006;50.956;7.002;2022-07-25T14:54:11;28.20;77.70
5960;DHT22;3006;50.956;7.002;2022-07-25T14:56:39;28.20;77.50
5960;DHT22;3006;50.956;7.002;2022-07-25T14:59:07;28.00;77.80
5960;DHT22;3006;50.956;7.002;2022-07-25T15:01:36;27.90;78.10
5960;DHT22;3006;50.956;7.002;2022-07-25T15:04:05;28.00;78.10
5960;DHT22;3006;50.956;7.002;2022-07-25T15:06:35;27.90;78.40
5960;DHT22;3006;50.956;7.002;2022-07-25T15:09:03;27.90;78.80
5960;DHT22;3006;50.956;7.002;2022-07-25T15:11:31;27.80;78.90
5960;DHT22;3006;50.956;7.002;2022-07-25T15:14:00;27.60;79.10
5960;DHT22;3006;50.956;7.002;2022-07-25T15:16:28;27.60;79.80
5960;DHT22;3006;50.956;7.002;2022-07-25T15:18:56;27.50;80.00
5960;DHT22;3006;50.956;7.002;2022-07-25T15:21:44;27.50;80.00
5960;DHT22;3006;50.956;7.002;2022-07-25T15:24:12;27.40;80.90
5960;DHT22;3006;50.956;7.002;2022-07-25T15:26:41;27.30;81.80
5960;DHT22;3006;50.956;7.002;2022-07-25T15:29:09;27.20;82.30
5960;DHT22;3006;50.956;7.002;2022-07-25T15:31:39;27.10;82.60
5960;DHT22;3006;50.956;7.002;2022-07-25T15:34:07;27.00;82.80
5960;DHT22;3006;50.956;7.002;2022-07-25T15:36:35;26.80;83.10
5960;DHT22;3006;50.956;7.002;2022-07-25T15:39:05;26.70;83.10
5960;DHT22;3006;50.956;7.002;2022-07-25T15:41:34;26.70;83.50
5960;DHT22;3006;50.956;7.002;2022-07-25T15:44:03;26.60;83.70
5960;DHT22;3006;50.956;7.002;2022-07-25T15:46:31;26.60;84.10
5960;DHT22;3006;50.956;7.002;2022-07-25T15:49:00;26.50;84.10
5960;DHT22;3006;50.956;7.002;2022-07-25T15:51:30;26.50;84.20
5960;DHT22;3006;50.956;7.002;2022-07-25T15:53:58;26.40;84.40
5960;DHT22;3006;50.956;7.002;2022-07-25T15:56:27;26.30;84.20
5960;DHT22;3006;50.956;7.002;2022-07-25T15:58:55;26.20;84.70
5960;DHT22;3006;50.956;7.002;2022-07-25T16:01:23;26.20;84.90
5960;DHT22;3006;50.956;7.002;2022-07-25T16:03:52;26.10;84.80
5960;DHT22;3006;50.956;7.002;2022-07-25T16:06:21;26.00;84.90
5960;DHT22;3006;50.956;7.002;2022-07-25T16:08:49;26.00;84.90
5960;DHT22;3006;50.956;7.002;2022-07-25T16:11:22;26.10;84.90
5960;DHT22;3006;50.956;7.002;2022-07-25T16:13:52;26.10;84.40
5960;DHT22;3006;50.956;7.002;2022-07-25T16:16:20;26.00;84.30
5960;DHT22;3006;50.956;7.002;2022-07-25T16:18:48;26.00;84.50